Time;durP1;ratioP1;P1;durP2;ratioP2;P2;SDS_P1;SDS_P2;PMS_P1;PMS_P2;Temp;Humidity;BMP_temperature;BMP_pressure;BME280_temperature;BME280_humidity;BME280_pressure;Samples;Min_cycle;Max_cycle;Signal;HPM_P1;HPM_P2
2023/09/05 00:02:15;;;;;;;3.92;3.22;;;15.90;99.90;;;;;;5110508;28;20030;-51
2023/09/05 00:04:47;;;;;;;2.80;2.60;;;15.90;99.90;;;;;;5108893;28;20035;-49
2023/09/05 00:07:49;;;;;;;3.25;2.95;;;15.90;99.90;;;;;;5103116;28;20032;-51
2023/09/05 00:10:15;;;;;;;2.63;2.33;;;15.80;99.90;;;;;;5062266;27;20387;-49
2023/09/05 00:12:43;;;;;;;3.88;2.75;;;15.70;99.90;;;;;;5062351;28;20036;-49
2023/09/05 00:15:12;;;;;;;3.15;2.78;;;15.70;99.90;;;;;;5069940;28;20040;-50
2023/09/05 00:17:38;;;;;;;5.45;2.90;;;15.70;99.90;;;;;;5069083;28;20033;-52
2023/09/05 00:20:07;;;;;;;6.82;3.70;;;15.70;99.90;;;;;;5068035;28;20498;-49
2023/09/05 00:22:33;;;;;;;6.65;3.55;;;15.70;99.90;;;;;;5068643;28;20036;-49
2023/09/05 00:24:59;;;;;;;;;;;15.70;99.90;;;;;;5085897;28;20040;-48
2023/09/05 00:27:25;;;;;;;5.32;3.22;;;15.70;99.90;;;;;;5070108;28;19917;-50
2023/09/05 00:29:50;;;;;;;4.45;3.58;;;15.70;99.90;;;;;;5069234;28;20100;-51
2023/09/05 00:32:18;;;;;;;2.80;2.60;;;15.70;99.90;;;;;;5068711;28;20111;-49
2023/09/05 00:34:44;;;;;;;3.97;3.63;;;15.70;99.90;;;;;;5069858;28;20056;-51
2023/09/05 00:37:10;;;;;;;6.53;3.97;;;15.70;99.90;;;;;;5068449;28;20040;-49
2023/09/05 00:39:40;;;;;;;3.72;3.40;;;15.70;99.90;;;;;;5064956;28;20037;-52
2023/09/05 00:42:09;;;;;;;4.03;3.60;;;15.70;99.90;;;;;;5048742;28;20037;-50
2023/09/05 00:44:35;;;;;;;5.13;3.53;;;15.70;99.90;;;;;;5050646;28;20041;-49
2023/09/05 00:47:01;;;;;;;4.32;3.17;;;15.70;99.90;;;;;;5051936;28;20571;-49
2023/09/05 00:49:27;;;;;;;7.20;3.90;;;15.70;99.90;;;;;;5049519;28;20567;-50
2023/09/05 00:52:00;;;;;;;4.43;3.70;;;15.70;99.90;;;;;;5050934;28;20120;-49
2023/09/05 00:54:26;;;;;;;6.25;3.92;;;15.60;99.90;;;;;;5050210;28;20052;-50
2023/09/05 00:56:53;;;;;;;4.65;4.25;;;15.60;99.90;;;;;;5050971;28;20037;-48
2023/09/05 00:59:19;;;;;;;9.18;3.70;;;15.60;99.90;;;;;;5048658;28;20111;-53
2023/09/05 01:01:45;;;;;;;3.22;3.00;;;15.60;99.90;;;;;;5063700;28;20477;-49
2023/09/05 01:04:13;;;;;;;5.05;3.15;;;15.50;99.90;;;;;;5070193;28;20398;-49
2023/09/05 01:07:04;;;;;;;4.30;3.80;;;15.50;99.90;;;;;;5055523;28;20064;-48
2023/09/05 01:09:39;;;;;;;5.32;4.00;;;15.40;99.90;;;;;;5049060;28;20036;-48
2023/09/05 01:12:07;;;;;;;6.25;4.28;;;15.40;99.90;;;;;;5065715;28;20413;-51
2023/09/05 01:14:32;;;;;;;5.25;4.55;;;15.40;99.90;;;;;;5070013;28;20036;-52
2023/09/05 01:17:01;;;;;;;4.35;3.90;;;15.40;99.90;;;;;;5053620;28;20039;-50
2023/09/05 01:19:34;;;;;;;4.72;4.22;;;15.30;99.90;;;;;;5053248;28;20437;-49
2023/09/05 01:22:12;;;;;;;5.07;4.63;;;15.30;99.90;;;;;;5068290;28;20039;-49
2023/09/05 01:24:39;;;;;;;5.70;4.50;;;15.30;99.90;;;;;;5069234;28;20048;-51
2023/09/05 01:27:05;;;;;;;9.77;4.13;;;15.40;99.90;;;;;;5052899;28;20033;-50
2023/09/05 01:29:35;;;;;;;7.43;4.63;;;15.40;99.90;;;;;;5050097;28;20033;-51
2023/09/05 01:32:04;;;;;;;5.13;3.75;;;15.40;99.90;;;;;;5049325;28;20033;-49
2023/09/05 01:34:30;;;;;;;6.60;4.18;;;15.40;99.90;;;;;;5049949;28;20058;-49
2023/09/05 01:36:57;;;;;;;5.55;4.10;;;15.40;99.90;;;;;;5051947;28;20494;-50
2023/09/05 01:39:22;;;;;;;4.80;4.15;;;15.40;99.90;;;;;;5068205;28;20520;-49
2023/09/05 01:41:48;;;;;;;6.32;4.70;;;15.40;99.90;;;;;;5057802;28;20041;-48
2023/09/05 01:44:14;;;;;;;;;;;15.40;99.90;;;;;;5050245;28;20037;-48
2023/09/05 01:46:40;;;;;;;7.95;4.75;;;15.40;99.90;;;;;;5059458;28;19943;-50
2023/09/05 01:49:05;;;;;;;4.30;3.85;;;15.50;99.90;;;;;;5068289;28;20486;-49
2023/09/05 01:51:31;;;;;;;7.22;4.70;;;15.50;99.90;;;;;;5060429;28;20045;-49
2023/09/05 01:53:57;;;;;;;3.63;3.33;;;15.50;99.90;;;;;;5049648;28;20037;-49
2023/09/05 01:56:22;;;;;;;4.32;3.92;;;15.30;99.90;;;;;;5049388;28;20498;-49
2023/09/05 01:58:48;;;;;;;4.90;3.63;;;15.20;99.90;;;;;;5048755;28;20033;-50
2023/09/05 02:01:14;;;;;;;8.32;4.68;;;15.20;99.90;;;;;;5052612;28;20033;-49
2023/09/05 02:03:39;;;;;;;10.68;4.30;;;15.20;99.90;;;;;;5068831;28;20047;-49
2023/09/05 02:06:05;;;;;;;4.13;3.83;;;15.20;99.90;;;;;;5067963;28;20036;-50
2023/09/05 02:08:33;;;;;;;5.45;4.78;;;15.20;99.90;;;;;;5068357;28;20044;-49
2023/09/05 02:10:59;;;;;;;6.40;4.13;;;15.20;99.90;;;;;;5059601;28;20037;-49
2023/09/05 02:13:24;;;;;;;6.47;4.75;;;15.10;99.90;;;;;;5049290;28;20510;-49
2023/09/05 02:15:50;;;;;;;4.53;4.22;;;15.10;99.90;;;;;;5048880;28;20051;-51
2023/09/05 02:18:15;;;;;;;6.97;4.43;;;15.10;99.90;;;;;;5067343;28;20081;-50
2023/09/05 02:20:41;;;;;;;4.43;4.05;;;15.10;99.90;;;;;;5067251;28;20040;-51
2023/09/05 02:23:07;;;;;;;5.85;4.68;;;15.10;99.90;;;;;;5066765;28;20124;-51
2023/09/05 02:25:33;;;;;;;4.88;4.47;;;15.00;99.90;;;;;;5068053;28;20048;-49
2023/09/05 02:27:59;;;;;;;4.80;4.40;;;15.00;99.90;;;;;;5055773;28;20045;-50
2023/09/05 02:30:25;;;;;;;4.43;3.92;;;15.00;99.90;;;;;;5057179;28;20029;-50
2023/09/05 02:32:54;;;;;;;;;;;15.00;99.90;;;;;;5064161;28;20048;-50
2023/09/05 02:35:25;;;;;;;6.28;4.18;;;14.90;99.90;;;;;;5067517;28;19924;-51
2023/09/05 02:37:52;;;;;;;7.07;4.70;;;14.90;99.90;;;;;;5068708;28;20524;-49
2023/09/05 02:40:18;;;;;;;5.00;4.50;;;14.90;99.90;;;;;;5067539;28;20074;-51
2023/09/05 02:42:44;;;;;;;5.65;5.15;;;14.90;99.90;;;;;;5067320;28;20412;-49
2023/09/05 02:45:11;;;;;;;5.40;4.90;;;14.90;99.90;;;;;;5067591;28;20033;-48
2023/09/05 02:47:37;;;;;;;5.95;5.45;;;15.00;99.90;;;;;;5061378;28;20041;-49
2023/09/05 02:50:02;;;;;;;5.15;4.65;;;15.00;99.90;;;;;;5064908;28;20061;-49
2023/09/05 02:52:30;;;;;;;5.95;5.40;;;15.00;99.90;;;;;;5071738;28;20048;-49
2023/09/05 02:54:58;;;;;;;5.72;5.18;;;15.00;99.90;;;;;;5063867;28;20033;-49
2023/09/05 02:57:23;;;;;;;5.07;4.65;;;15.00;99.90;;;;;;5056330;28;20123;-49
2023/09/05 02:59:53;;;;;;;10.88;5.70;;;15.00;99.90;;;;;;5061622;28;20115;-49
2023/09/05 03:02:19;;;;;;;6.18;5.68;;;15.00;99.90;;;;;;5059457;28;20033;-51
2023/09/05 03:04:45;;;;;;;6.30;5.45;;;15.00;99.90;;;;;;5057976;28;20064;-49
2023/09/05 03:07:10;;;;;;;6.97;5.63;;;15.00;99.90;;;;;;5071286;28;20056;-50
2023/09/05 03:09:37;;;;;;;7.30;5.88;;;15.00;99.90;;;;;;5067063;28;20036;-51
2023/09/05 03:12:05;;;;;;;6.15;5.00;;;15.00;99.90;;;;;;5052595;28;20037;-52
2023/09/05 03:14:30;;;;;;;5.60;5.05;;;15.00;99.90;;;;;;5069085;28;20068;-50
2023/09/05 03:16:57;;;;;;;7.97;5.60;;;14.90;99.90;;;;;;5052027;28;20095;-51
2023/09/05 03:19:22;;;;;;;;;;;14.90;99.90;;;;;;5052178;28;20064;-48
2023/09/05 03:21:49;;;;;;;5.68;4.68;;;14.80;99.90;;;;;;5071552;28;19955;-50
2023/09/05 03:24:17;;;;;;;5.15;4.20;;;14.70;99.90;;;;;;5069558;28;20064;-50
2023/09/05 03:26:46;;;;;;;5.95;4.57;;;14.60;99.90;;;;;;5071197;28;20047;-50
2023/09/05 03:29:12;;;;;;;5.53;5.07;;;14.60;99.90;;;;;;5069634;28;20414;-50
2023/09/05 03:31:39;;;;;;;5.03;4.53;;;14.50;99.90;;;;;;5069421;28;20164;-51
2023/09/05 03:34:05;;;;;;;7.65;6.05;;;14.50;99.90;;;;;;5060708;28;20132;-48
2023/09/05 03:36:32;;;;;;;11.73;6.15;;;14.40;99.90;;;;;;5068297;28;20123;-51
2023/09/05 03:38:57;;;;;;;7.10;6.40;;;14.40;99.90;;;;;;5054133;28;20498;-48
2023/09/05 03:41:23;;;;;;;8.77;5.68;;;14.40;99.90;;;;;;5052181;28;20124;-49
2023/09/05 03:43:48;;;;;;;8.40;6.40;;;14.50;99.90;;;;;;5051298;28;20036;-51
2023/09/05 03:46:14;;;;;;;8.30;6.45;;;14.50;99.90;;;;;;5063953;28;20036;-50
2023/09/05 03:48:40;;;;;;;10.88;6.80;;;14.50;99.90;;;;;;5058743;28;20098;-49
2023/09/05 03:51:05;;;;;;;7.32;6.57;;;14.50;99.90;;;;;;5052109;28;20067;-48
2023/09/05 03:53:31;;;;;;;10.27;6.60;;;14.50;99.90;;;;;;5051329;28;20041;-49
2023/09/05 03:55:57;;;;;;;6.68;6.05;;;14.60;99.90;;;;;;5060026;28;20402;-49
2023/09/05 03:58:23;;;;;;;6.22;5.75;;;14.50;99.90;;;;;;5069238;28;20036;-53
2023/09/05 04:00:48;;;;;;;7.10;6.47;;;14.50;99.90;;;;;;5063425;28;20040;-50
2023/09/05 04:03:14;;;;;;;7.22;6.40;;;14.40;99.90;;;;;;5056263;28;20449;-48
2023/09/05 04:05:40;;;;;;;6.13;5.63;;;14.30;99.90;;;;;;5065673;28;20116;-48
2023/09/05 04:08:06;;;;;;;9.45;6.13;;;14.30;99.90;;;;;;5050649;28;20048;-48
2023/09/05 04:10:32;;;;;;;9.80;7.53;;;14.30;99.90;;;;;;5052098;28;20043;-48
2023/09/05 04:12:58;;;;;;;10.55;7.60;;;14.30;99.90;;;;;;5059918;28;20115;-48
2023/09/05 04:15:23;;;;;;;8.38;7.07;;;14.30;99.90;;;;;;5052398;28;20036;-51
2023/09/05 04:17:50;;;;;;;9.48;6.55;;;14.30;99.90;;;;;;5070780;28;20036;-51
2023/09/05 04:20:17;;;;;;;8.93;7.40;;;14.30;99.90;;;;;;5069548;28;20119;-48
2023/09/05 04:22:42;;;;;;;9.20;7.55;;;14.40;99.90;;;;;;5052321;28;20571;-48
2023/09/05 04:25:08;;;;;;;13.48;7.22;;;14.30;99.90;;;;;;5052063;28;20044;-49
2023/09/05 04:27:34;;;;;;;8.60;7.47;;;14.30;99.90;;;;;;5068688;28;20131;-49
2023/09/05 04:30:00;;;;;;;7.45;6.78;;;14.20;99.90;;;;;;5068881;28;20045;-48
2023/09/05 04:32:31;;;;;;;10.15;7.97;;;14.30;99.90;;;;;;5067692;28;20049;-48
2023/09/05 04:35:01;;;;;;;8.80;7.40;;;14.20;99.90;;;;;;5068848;28;20081;-50
2023/09/05 04:37:27;;;;;;;9.30;8.00;;;14.30;99.90;;;;;;5065548;28;20410;-50
2023/09/05 04:39:54;;;;;;;;;;;14.30;99.90;;;;;;5068952;28;20064;-50
2023/09/05 04:42:20;;;;;;;10.77;7.57;;;14.30;99.90;;;;;;5054374;28;20022;-51
2023/09/05 04:44:46;;;;;;;;;;;14.40;99.90;;;;;;5050974;28;20502;-50
2023/09/05 04:47:22;;;;;;;10.43;7.25;;;14.40;99.90;;;;;;5063372;28;19924;-51
2023/09/05 04:49:50;;;;;;;10.98;7.10;;;14.30;99.90;;;;;;5068732;28;20048;-48
2023/09/05 04:52:16;;;;;;;14.20;7.15;;;14.20;99.90;;;;;;5055957;28;20639;-51
2023/09/05 04:54:42;;;;;;;7.63;6.55;;;14.20;99.90;;;;;;5052729;28;20037;-48
2023/09/05 04:57:10;;;;;;;8.68;7.32;;;14.10;99.90;;;;;;5060114;28;20045;-51
2023/09/05 04:59:37;;;;;;;11.32;7.47;;;14.10;99.90;;;;;;5049337;28;20037;-51
2023/09/05 05:02:03;;;;;;;8.55;7.65;;;14.10;99.90;;;;;;5069440;28;20048;-49
2023/09/05 05:04:29;;;;;;;11.40;8.35;;;14.20;99.90;;;;;;5060865;28;20072;-48
2023/09/05 05:06:55;;;;;;;11.80;7.60;;;14.10;99.90;;;;;;5051348;28;20490;-48
2023/09/05 05:09:20;;;;;;;8.77;6.85;;;14.00;99.90;;;;;;5048559;28;20048;-48
2023/09/05 05:11:46;;;;;;;9.20;8.35;;;13.90;99.90;;;;;;5049032;28;20482;-51
2023/09/05 05:14:12;;;;;;;9.60;8.57;;;13.90;99.90;;;;;;5054183;28;20032;-48
2023/09/05 05:16:37;;;;;;;8.70;7.85;;;13.80;99.90;;;;;;5069285;28;20505;-48
2023/09/05 05:19:03;;;;;;;8.65;7.95;;;13.80;99.90;;;;;;5065617;28;20043;-49
2023/09/05 05:21:29;;;;;;;9.25;8.35;;;13.90;99.90;;;;;;5069154;28;20041;-49
2023/09/05 05:23:55;;;;;;;9.05;8.15;;;14.00;99.90;;;;;;5067168;28;20113;-51
2023/09/05 05:26:20;;;;;;;;;;;14.00;99.90;;;;;;5050296;28;20045;-48
2023/09/05 05:28:46;;;;;;;9.07;7.32;;;14.10;99.90;;;;;;5050212;28;20362;-48
2023/09/05 05:31:14;;;;;;;10.45;8.00;;;14.10;99.90;;;;;;5068455;28;20241;-49
2023/09/05 05:33:40;;;;;;;9.43;8.13;;;14.20;99.90;;;;;;5057720;28;20437;-51
2023/09/05 05:36:06;;;;;;;9.30;8.40;;;14.20;99.90;;;;;;5059904;28;20043;-51
2023/09/05 05:38:31;;;;;;;10.05;7.65;;;14.20;99.90;;;;;;5054431;28;20397;-50
2023/09/05 05:40:58;;;;;;;8.55;7.65;;;14.20;99.90;;;;;;5055645;28;20079;-48
2023/09/05 05:43:24;;;;;;;;;;;14.30;99.90;;;;;;5059617;28;20038;-48
2023/09/05 05:45:51;;;;;;;11.40;8.40;;;14.40;99.90;;;;;;5063811;28;19916;-49
2023/09/05 05:48:17;;;;;;;8.77;8.02;;;14.50;99.90;;;;;;5068350;28;20110;-49
2023/09/05 05:50:43;;;;;;;13.98;8.80;;;14.60;99.90;;;;;;5058900;28;20467;-51
2023/09/05 05:53:08;;;;;;;8.80;7.60;;;14.70;99.90;;;;;;5058376;28;20510;-48
2023/09/05 05:55:34;;;;;;;11.32;9.18;;;14.80;99.90;;;;;;5054722;28;20037;-48
2023/09/05 05:58:00;;;;;;;8.38;7.57;;;14.90;99.90;;;;;;5060473;28;20412;-48
2023/09/05 06:00:27;;;;;;;9.45;8.55;;;15.00;99.90;;;;;;5064172;28;20090;-49
2023/09/05 06:02:52;;;;;;;8.73;7.97;;;15.10;99.90;;;;;;5065467;28;20052;-49
2023/09/05 06:05:18;;;;;;;10.65;9.55;;;15.20;99.90;;;;;;5062484;28;20293;-48
2023/09/05 06:07:44;;;;;;;10.40;9.38;;;15.30;99.90;;;;;;5061639;28;20409;-49
2023/09/05 06:10:09;;;;;;;10.00;9.00;;;15.40;99.90;;;;;;5064663;28;20033;-49
2023/09/05 06:12:35;;;;;;;11.30;9.55;;;15.50;99.90;;;;;;5051953;28;20037;-52
2023/09/05 06:15:01;;;;;;;13.90;10.57;;;15.60;99.90;;;;;;5066060;28;20037;-51
2023/09/05 06:17:26;;;;;;;10.73;8.77;;;15.70;99.90;;;;;;5068132;28;20112;-49
2023/09/05 06:19:52;;;;;;;8.82;7.53;;;15.90;99.90;;;;;;5064689;28;20066;-50
2023/09/05 06:22:18;;;;;;;10.60;7.45;;;15.90;99.90;;;;;;5055951;28;20040;-49
2023/09/05 06:24:43;;;;;;;9.80;7.82;;;16.00;99.90;;;;;;5058260;28;20497;-52
2023/09/05 06:27:10;;;;;;;15.15;8.45;;;16.20;99.90;;;;;;5058293;28;20037;-52
2023/09/05 06:29:36;;;;;;;9.00;7.75;;;16.30;99.90;;;;;;5056480;28;20041;-51
2023/09/05 06:32:01;;;;;;;10.95;8.30;;;16.30;99.90;;;;;;5063068;28;20504;-53
2023/09/05 06:34:27;;;;;;;7.57;6.78;;;16.50;99.90;;;;;;5051839;28;20454;-49
2023/09/05 06:36:53;;;;;;;10.80;8.85;;;16.60;99.90;;;;;;5062649;28;20044;-51
2023/09/05 06:39:18;;;;;;;10.60;7.82;;;16.70;99.90;;;;;;5071858;28;20089;-50
2023/09/05 06:41:44;;;;;;;12.20;8.50;;;16.80;99.90;;;;;;5056915;28;20053;-52
2023/09/05 06:44:10;;;;;;;9.55;7.93;;;16.90;99.90;;;;;;5062485;28;20081;-49
2023/09/05 06:46:36;;;;;;;9.50;8.45;;;17.00;99.90;;;;;;5046996;28;20040;-53
2023/09/05 06:49:02;;;;;;;12.32;7.15;;;17.00;99.90;;;;;;5051619;28;20041;-51
2023/09/05 06:51:30;;;;;;;8.25;7.45;;;17.20;99.90;;;;;;5048341;28;20394;-52
2023/09/05 06:53:56;;;;;;;12.82;9.02;;;17.30;99.90;;;;;;5051279;28;20428;-52
2023/09/05 06:56:22;;;;;;;;;;;17.40;99.90;;;;;;5056299;28;20397;-49
2023/09/05 06:58:47;;;;;;;8.02;7.20;;;17.50;99.90;;;;;;5060486;28;19917;-50
2023/09/05 07:01:13;;;;;;;8.07;6.65;;;17.60;99.90;;;;;;5053805;28;20072;-49
2023/09/05 07:03:39;;;;;;;7.80;6.97;;;17.70;99.90;;;;;;5049005;28;20041;-53
2023/09/05 07:06:04;;;;;;;7.53;6.82;;;17.70;99.90;;;;;;5057188;28;20076;-53
2023/09/05 07:08:31;;;;;;;7.32;6.72;;;17.80;99.90;;;;;;5049793;28;20562;-51
2023/09/05 07:10:57;;;;;;;9.63;7.20;;;17.90;99.90;;;;;;5057917;28;20067;-49
2023/09/05 07:13:22;;;;;;;7.32;6.63;;;18.00;99.90;;;;;;5054757;28;20075;-49
2023/09/05 07:15:48;;;;;;;115.82;14.60;;;18.10;99.90;;;;;;5057520;28;20032;-52
2023/09/05 07:18:14;;;;;;;50.05;10.07;;;18.10;99.90;;;;;;5054483;28;20519;-52
2023/09/05 07:20:40;;;;;;;10.30;6.57;;;18.30;99.90;;;;;;5052131;28;20044;-50
2023/09/05 07:23:05;;;;;;;;;;;18.40;99.90;;;;;;5051735;28;20160;-49
2023/09/05 07:25:31;;;;;;;19.55;6.68;;;18.50;99.90;;;;;;5052671;28;20011;-50
2023/09/05 07:27:57;;;;;;;;;;;18.60;99.90;;;;;;5053430;28;20060;-50
2023/09/05 07:30:23;;;;;;;8.82;5.60;;;18.80;99.90;;;;;;5049350;28;20342;-54
2023/09/05 07:32:49;;;;;;;10.35;6.43;;;18.90;99.90;;;;;;5050061;28;20082;-51
2023/09/05 07:35:14;;;;;;;4.72;4.32;;;19.00;99.90;;;;;;5057305;28;20097;-53
2023/09/05 07:37:41;;;;;;;8.68;5.03;;;19.20;99.90;;;;;;5050792;28;20043;-50
2023/09/05 07:40:08;;;;;;;6.68;6.00;;;19.30;99.90;;;;;;5049773;28;20044;-52
2023/09/05 07:42:34;;;;;;;10.05;5.32;;;19.40;99.90;;;;;;5053415;28;20094;-52
2023/09/05 07:45:02;;;;;;;6.20;5.70;;;19.60;99.90;;;;;;5053246;28;20494;-52
2023/09/05 07:47:27;;;;;;;7.65;5.95;;;19.70;99.90;;;;;;5054907;28;20041;-51
2023/09/05 07:49:53;;;;;;;7.70;4.78;;;19.80;99.90;;;;;;5053191;28;20572;-51
2023/09/05 07:52:19;;;;;;;;;;;20.00;99.90;;;;;;5050512;28;20506;-54
2023/09/05 07:54:44;;;;;;;5.05;4.20;;;20.10;99.90;;;;;;5051965;28;19925;-52
2023/09/05 07:57:10;;;;;;;7.65;4.97;;;20.20;99.90;;;;;;5051500;28;20390;-49
2023/09/05 07:59:35;;;;;;;;;;;20.30;99.90;;;;;;5053116;28;20041;-49
2023/09/05 08:02:01;;;;;;;5.22;4.35;;;20.40;99.90;;;;;;5058664;28;19928;-49
2023/09/05 08:04:29;;;;;;;;;;;20.50;99.90;;;;;;5050484;28;20053;-52
2023/09/05 08:06:54;;;;;;;;;;;20.60;99.90;;;;;;5052317;28;20082;-51
2023/09/05 08:09:20;;;;;;;5.20;3.80;;;20.80;99.90;;;;;;5052202;28;20703;-49
2023/09/05 08:11:46;;;;;;;3.88;3.53;;;20.90;99.90;;;;;;5055383;28;20044;-50
2023/09/05 08:14:11;;;;;;;;;;;21.00;99.90;;;;;;5054419;28;20440;-49
2023/09/05 08:16:38;;;;;;;4.25;3.80;;;21.20;99.90;;;;;;5052306;28;19981;-54
2023/09/05 08:19:04;;;;;;;5.20;3.55;;;21.30;99.90;;;;;;5051654;28;20481;-52
2023/09/05 08:21:29;;;;;;;8.50;3.72;;;21.40;99.90;;;;;;5050404;28;20072;-49
2023/09/05 08:23:55;;;;;;;;;;;21.50;99.90;;;;;;5052479;28;20064;-53
2023/09/05 08:26:21;;;;;;;3.88;2.53;;;21.70;99.90;;;;;;5053349;28;20390;-51
2023/09/05 08:28:46;;;;;;;;;;;21.90;99.90;;;;;;5049637;28;20548;-51
2023/09/05 08:31:13;;;;;;;4.13;2.65;;;22.00;99.90;;;;;;5050082;28;19951;-52
2023/09/05 08:33:38;;;;;;;3.30;1.85;;;22.10;99.90;;;;;;5048711;28;20111;-49
2023/09/05 08:36:05;;;;;;;;;;;22.30;99.90;;;;;;5054043;28;20120;-49
2023/09/05 08:38:30;;;;;;;4.43;2.40;;;22.40;99.90;;;;;;5051334;28;19916;-49
2023/09/05 08:41:02;;;;;;;;;;;22.60;99.90;;;;;;5052032;28;20097;-52
2023/09/05 08:43:28;;;;;;;4.10;1.73;;;22.70;99.90;;;;;;5054211;28;19999;-50
2023/09/05 08:45:54;;;;;;;;;;;22.80;99.90;;;;;;5050980;28;20041;-50
2023/09/05 08:48:20;;;;;;;2.40;1.50;;;22.90;99.90;;;;;;5044219;28;20341;-51
2023/09/05 08:50:46;;;;;;;4.53;1.30;;;23.00;99.90;;;;;;5044278;28;20044;-52
2023/09/05 08:53:15;;;;;;;5.65;1.08;;;23.20;99.90;;;;;;5048610;28;20041;-52
2023/09/05 08:55:42;;;;;;;1.67;1.33;;;23.30;99.90;;;;;;5054521;28;20139;-49
2023/09/05 08:58:14;;;;;;;1.30;1.20;;;23.40;99.90;;;;;;5049694;28;20059;-51
2023/09/05 09:00:39;;;;;;;2.70;1.25;;;23.50;99.90;;;;;;5049718;28;20490;-53
2023/09/05 09:03:06;;;;;;;;;;;23.60;99.90;;;;;;5052668;28;20101;-53
2023/09/05 09:05:32;;;;;;;2.10;1.20;;;23.70;99.90;;;;;;5052081;28;19995;-50
2023/09/05 09:07:58;;;;;;;3.10;1.35;;;23.80;99.90;;;;;;5052202;28;20723;-51
2023/09/05 09:10:24;;;;;;;0.90;0.75;;;23.90;99.90;;;;;;5048096;28;20041;-53
2023/09/05 09:12:54;;;;;;;3.10;1.00;;;24.00;99.90;;;;;;5046864;28;20414;-50
2023/09/05 09:15:23;;;;;;;1.98;0.98;;;24.10;99.90;;;;;;5049630;28;20110;-49
2023/09/05 09:17:53;;;;;;;3.13;0.93;;;24.20;99.90;;;;;;5053376;28;20044;-49
2023/09/05 09:20:21;;;;;;;1.83;0.70;;;24.30;99.90;;;;;;5050648;28;20051;-51
2023/09/05 09:22:50;;;;;;;1.73;0.65;;;24.40;99.90;;;;;;5052753;28;20076;-51
2023/09/05 09:25:20;;;;;;;4.78;1.27;;;24.50;99.90;;;;;;5049849;28;20041;-49
2023/09/05 09:27:57;;;;;;;4.00;1.08;;;24.50;99.90;;;;;;5045873;28;20448;-51
2023/09/05 09:30:25;;;;;;;1.17;0.60;;;24.60;99.90;;;;;;5048548;28;20351;-49
2023/09/05 09:32:52;;;;;;;1.20;0.60;;;24.60;99.90;;;;;;5050425;28;20405;-51
2023/09/05 09:35:18;;;;;;;2.40;0.93;;;24.60;99.90;;;;;;5050714;28;20037;-49
2023/09/05 09:37:49;;;;;;;1.38;0.90;;;24.70;99.90;;;;;;5052184;28;20072;-51
2023/09/05 09:40:16;;;;;;;3.97;0.68;;;24.80;99.90;;;;;;5048594;28;20064;-52
2023/09/05 09:42:45;;;;;;;1.85;1.00;;;24.90;99.90;;;;;;5047347;28;20041;-49
2023/09/05 09:45:11;;;;;;;2.35;0.88;;;25.00;99.90;;;;;;5051901;28;20208;-53
2023/09/05 09:47:48;;;;;;;0.70;0.50;;;25.10;99.90;;;;;;5053684;28;20414;-49
2023/09/05 09:50:17;;;;;;;2.50;0.60;;;25.20;99.90;;;;;;5053700;28;20069;-51
2023/09/05 09:52:45;;;;;;;1.60;0.77;;;25.30;99.90;;;;;;5058616;28;20327;-52
2023/09/05 09:55:13;;;;;;;0.85;0.40;;;25.40;99.90;;;;;;5057232;28;20040;-52
2023/09/05 09:57:46;;;;;;;5.60;0.47;;;25.50;99.90;;;;;;5055429;28;20382;-49
2023/09/05 10:00:15;;;;;;;6.63;0.50;;;25.70;99.90;;;;;;5050963;28;20456;-48
2023/09/05 10:02:43;;;;;;;2.92;0.50;;;25.70;99.90;;;;;;5049395;28;20039;-53
2023/09/05 10:05:11;;;;;;;2.88;0.70;;;25.80;99.90;;;;;;5057612;28;20512;-52
2023/09/05 10:07:37;;;;;;;0.98;0.50;;;25.80;99.90;;;;;;5051595;28;20063;-53
2023/09/05 10:10:04;;;;;;;3.72;0.60;;;25.90;99.90;;;;;;5053099;28;20048;-50
2023/09/05 10:12:31;;;;;;;3.70;0.60;;;25.90;99.90;;;;;;5051355;28;20175;-54
2023/09/05 10:14:58;;;;;;;3.97;0.73;;;26.00;99.90;;;;;;5050865;28;20037;-52
2023/09/05 10:17:26;;;;;;;1.80;0.68;;;26.00;99.90;;;;;;5048150;28;20052;-53
2023/09/05 10:19:53;;;;;;;3.03;0.82;;;26.10;99.90;;;;;;5049440;28;20484;-49
2023/09/05 10:22:21;;;;;;;2.10;0.50;;;26.10;99.90;;;;;;5056441;28;20059;-54
2023/09/05 10:24:47;;;;;;;2.97;0.40;;;26.20;99.90;;;;;;5051337;28;20190;-48
2023/09/05 10:27:13;;;;;;;8.70;0.60;;;26.20;99.90;;;;;;5047459;28;20040;-47
2023/09/05 10:29:44;;;;;;;0.88;0.63;;;26.20;99.90;;;;;;5049276;28;20052;-52
2023/09/05 10:32:29;;;;;;;1.67;0.55;;;26.20;99.90;;;;;;5051337;28;20033;-51
2023/09/05 10:34:58;;;;;;;1.05;0.50;;;26.20;99.90;;;;;;5050198;28;20045;-50
2023/09/05 10:37:51;;;;;;;3.03;0.60;;;26.30;99.90;;;;;;5051715;28;20048;-48
2023/09/05 10:40:18;;;;;;;1.70;0.52;;;26.30;99.90;;;;;;5048665;28;20128;-49
2023/09/05 10:42:50;;;;;;;1.98;0.52;;;26.40;99.90;;;;;;5050763;28;20040;-52
2023/09/05 10:45:17;;;;;;;2.75;0.70;;;26.40;99.90;;;;;;5048255;28;20102;-51
2023/09/05 10:47:42;;;;;;;3.03;0.43;;;26.50;99.90;;;;;;5049304;28;20033;-50
2023/09/05 10:50:10;;;;;;;1.37;0.30;;;26.50;99.90;;;;;;5051199;28;20037;-50
2023/09/05 10:52:36;;;;;;;1.42;0.45;;;26.70;99.90;;;;;;5051733;28;20082;-51
2023/09/05 10:55:31;;;;;;;0.82;0.40;;;26.70;99.30;;;;;;5055530;28;20068;-54
2023/09/05 10:57:58;;;;;;;1.13;0.40;;;26.80;99.20;;;;;;5054728;28;20036;-49
2023/09/05 11:00:26;;;;;;;2.72;0.40;;;26.90;99.40;;;;;;5051352;28;20088;-51
2023/09/05 11:02:56;;;;;;;3.45;0.40;;;26.90;98.90;;;;;;5049671;28;20075;-49
2023/09/05 11:05:26;;;;;;;2.13;0.60;;;26.90;98.90;;;;;;5052373;28;20048;-53
2023/09/05 11:07:54;;;;;;;2.33;0.60;;;26.90;98.20;;;;;;5046220;28;20120;-54
2023/09/05 11:10:39;;;;;;;0.70;0.55;;;27.00;98.10;;;;;;5057971;28;20097;-53
2023/09/05 11:13:09;;;;;;;0.75;0.47;;;27.00;98.40;;;;;;5055770;28;20052;-52
2023/09/05 11:15:36;;;;;;;1.02;0.30;;;27.00;97.70;;;;;;5052170;28;20056;-53
2023/09/05 11:18:05;;;;;;;0.45;0.30;;;27.10;98.30;;;;;;5052066;28;20049;-53
2023/09/05 11:20:41;;;;;;;0.63;0.40;;;27.10;97.40;;;;;;5056438;28;20577;-51
2023/09/05 11:23:13;;;;;;;2.00;0.45;;;27.10;97.40;;;;;;5049784;28;20028;-50
2023/09/05 11:25:50;;;;;;;3.33;0.70;;;27.20;97.10;;;;;;5047943;28;20083;-48
2023/09/05 11:28:17;;;;;;;2.10;0.40;;;27.20;97.00;;;;;;5047936;28;20422;-53
2023/09/05 11:30:45;;;;;;;0.75;0.40;;;27.30;97.20;;;;;;5050622;28;20056;-52
2023/09/05 11:33:15;;;;;;;1.80;0.50;;;27.30;97.70;;;;;;5053349;28;20047;-52
2023/09/05 11:35:45;;;;;;;3.42;0.43;;;27.30;97.70;;;;;;5051635;28;20365;-53
2023/09/05 11:38:11;;;;;;;4.25;0.70;;;27.40;97.10;;;;;;5052797;28;20043;-51
2023/09/05 11:40:38;;;;;;;2.20;0.32;;;27.50;98.40;;;;;;5052521;28;20032;-53
2023/09/05 11:43:06;;;;;;;2.08;0.52;;;27.50;97.80;;;;;;5057341;28;20041;-53
2023/09/05 11:45:33;;;;;;;2.05;0.52;;;27.60;97.10;;;;;;5058374;28;20048;-49
2023/09/05 11:48:01;;;;;;;1.20;0.40;;;27.60;97.00;;;;;;5052557;28;20454;-51
2023/09/05 11:50:28;;;;;;;1.48;0.40;;;27.60;96.90;;;;;;5050145;28;20036;-50
2023/09/05 11:52:54;;;;;;;2.20;0.50;;;27.70;97.10;;;;;;5051830;28;20044;-54
2023/09/05 11:55:23;;;;;;;2.17;0.50;;;27.70;97.20;;;;;;5051969;28;20124;-52
2023/09/05 11:57:52;;;;;;;2.35;0.40;;;27.80;97.10;;;;;;5051820;28;20040;-50
2023/09/05 12:00:19;;;;;;;1.15;0.43;;;27.80;96.80;;;;;;5051704;28;20047;-49
2023/09/05 12:02:45;;;;;;;4.10;0.70;;;27.90;97.00;;;;;;5053252;28;20049;-53
2023/09/05 12:05:12;;;;;;;2.95;0.35;;;27.90;96.60;;;;;;5054974;28;20390;-49
2023/09/05 12:07:37;;;;;;;3.03;0.40;;;27.90;96.40;;;;;;5055154;28;20033;-53
2023/09/05 12:10:04;;;;;;;1.77;0.30;;;28.00;96.80;;;;;;5048724;28;20082;-49
2023/09/05 12:12:29;;;;;;;0.80;0.30;;;28.10;96.60;;;;;;5038503;28;20473;-50
2023/09/05 12:14:57;;;;;;;1.05;0.60;;;28.10;96.40;;;;;;5054408;28;20167;-53
2023/09/05 12:17:27;;;;;;;1.13;0.40;;;28.10;96.60;;;;;;5056283;28;20041;-52
2023/09/05 12:19:55;;;;;;;1.35;0.50;;;28.20;96.70;;;;;;5054246;28;20040;-52
2023/09/05 12:22:29;;;;;;;3.60;0.35;;;28.20;97.20;;;;;;5050054;28;20044;-53
2023/09/05 12:25:14;;;;;;;1.55;0.43;;;28.20;96.70;;;;;;5049756;28;20048;-49
2023/09/05 12:27:45;;;;;;;1.17;0.30;;;28.30;96.80;;;;;;5052373;28;20062;-52
2023/09/05 12:30:28;;;;;;;1.75;0.47;;;28.30;96.70;;;;;;5056755;28;20059;-52
2023/09/05 12:32:56;;;;;;;2.10;0.50;;;28.40;96.60;;;;;;5054560;28;20052;-51
2023/09/05 12:35:22;;;;;;;1.33;0.40;;;28.50;96.80;;;;;;5049244;28;20040;-49
2023/09/05 12:37:48;;;;;;;4.15;0.52;;;28.50;97.00;;;;;;5047082;28;20118;-52
2023/09/05 12:40:15;;;;;;;1.08;0.35;;;28.50;96.30;;;;;;5044708;28;20090;-52
2023/09/05 12:42:44;;;;;;;0.95;0.30;;;28.50;96.20;;;;;;5049811;28;20087;-49
2023/09/05 12:45:11;;;;;;;1.00;0.40;;;28.50;96.50;;;;;;5046211;28;20118;-52
2023/09/05 12:47:38;;;;;;;0.77;0.43;;;28.60;96.50;;;;;;5044110;28;20037;-53
2023/09/05 12:50:04;;;;;;;2.85;0.60;;;28.60;96.40;;;;;;5061202;28;20094;-51
2023/09/05 12:52:29;;;;;;;0.88;0.40;;;28.60;96.40;;;;;;5043541;28;20048;-50